Data for 07/27/2016

Time Sea-Level Adjusted Pressure Absolute Pressure Temperature Relative Humidity Dew Point   
(mb) (inHg) (mb) (inHg) (C) (F) (%) (C) (F)
00:05 1023 30.21 852 25.16 16.8 62.2 45 4.9 40.8
00:10 1023 30.21 852 25.16 16.5 61.7 46 5 40.9
00:15 1023 30.21 852 25.16 16.4 61.5 46 4.8 40.7
00:20 1023 30.21 852 25.16 16.4 61.6 47 5.1 41.1
00:25 1023 30.21 852 25.16 16.4 61.5 46 5 40.9
00:30 1023 30.21 852 25.16 16.3 61.4 48 5.3 41.6
00:35 1023 30.21 852 25.16 16.3 61.3 45 4.6 40.3
00:40 1023 30.21 852 25.16 16.5 61.7 44 4.4 39.8
00:45 1023 30.21 852 25.16 16.6 61.9 44 4.4 39.9
00:50 1023 30.21 852 25.16 16.4 61.4 46 4.8 40.7
00:55 1023 30.21 852 25.16 16.1 60.9 47 4.8 40.6
01:00 1023 30.21 852 25.16 15.8 60.4 46 4.4 39.9
01:05 1023 30.21 852 25.16 15.9 60.6 46 4.4 40
01:10 1023 30.21 852 25.16 16.2 61.1 45 4.4 40
01:15 1023 30.21 852 25.16 16.4 61.5 45 4.6 40.3
01:20 1023 30.21 852 25.16 16.2 61.2 45 4.5 40.1
01:25 1023 30.21 852 25.16 16.1 61.1 45 4.4 39.9
01:30 1023 30.21 852 25.16 16.1 61 45 4.3 39.8
01:35 1023 30.21 852 25.16 16.1 60.9 46 4.6 40.4
01:40 1023 30.21 852 25.16 16 60.8 47 4.8 40.6
01:45 1023 30.21 852 25.16 16 60.8 46 4.5 40.2
01:50 1023 30.21 852 25.16 16.1 61 43 3.6 38.5
01:55 1023 30.21 852 25.16 16.5 61.7 44 4.2 39.6
02:00 1023 30.21 852 25.16 16.7 62.1 44 4.6 40.2
02:05 1023 30.21 852 25.16 16.5 61.6 45 4.5 40.1
02:10 1023 30.21 852 25.16 16.2 61.2 46 4.6 40.3
02:15 1023 30.21 852 25.16 15.9 60.6 47 4.8 40.7
02:20 1023 30.21 852 25.16 15.6 60.1 50 5.4 41.8
02:25 1023 30.21 852 25.16 15.4 59.7 50 5.2 41.4
02:30 1023 30.21 852 25.16 15.2 59.4 50 4.9 40.9
02:35 1023 30.21 852 25.16 15 58.9 50 4.7 40.5
02:40 1023 30.21 852 25.16 14.6 58.3 50 4.5 40
02:45 1023 30.21 852 25.16 14.4 58 51 4.4 40
02:50 1023 30.21 852 25.16 14.3 57.7 51 4.4 40
02:55 1023 30.21 852 25.16 14.3 57.8 51 4.5 40.1
03:00 1023 30.21 852 25.16 14.1 57.4 53 4.8 40.7
03:05 1023 30.21 852 25.16 13.9 57 53 4.6 40.2
03:10 1023 30.21 852 25.16 13.8 56.8 53 4.5 40.1
03:15 1023 30.21 852 25.16 13.6 56.6 53 4.4 39.8
03:20 1023 30.21 852 25.16 13.7 56.7 53 4.5 40.1
03:25 1023 30.21 852 25.16 13.8 56.8 52 4.2 39.5
03:30 1023 30.21 852 25.16 13.9 56.9 52 4.3 39.7
03:35 1023 30.21 852 25.16 13.8 56.9 52 4.3 39.8
03:40 1023 30.21 852 25.16 13.8 56.8 53 4.5 40.2
03:45 1023 30.21 852 25.16 13.5 56.3 55 4.6 40.3
03:50 1023 30.21 852 25.16 12.9 55.2 58 5 40.9
03:55 1023 30.21 852 25.16 12.3 54.2 59 4.6 40.3
04:00 1023 30.21 852 25.16 12.1 53.9 59 4.5 40.1
04:05 1023 30.21 852 25.16 12.3 54.1 57 4 39.1
04:10 1023 30.21 852 25.16 12.8 55 54 3.7 38.7
04:15 1023 30.21 852 25.16 13.3 55.9 52 3.8 38.9
04:20 1023 30.21 852 25.16 13.5 56.2 52 3.9 38.9
04:25 1023 30.21 852 25.16 13.5 56.2 53 4.1 39.4
04:30 1023 30.21 852 25.16 13.2 55.7 54 4.1 39.4
04:35 1023 30.21 852 25.16 13.2 55.7 55 4.3 39.7
04:40 1023 30.21 852 25.16 13 55.4 55 4.3 39.7
04:45 1023 30.21 852 25.16 12.8 55 54 3.7 38.6
04:50 1023 30.21 852 25.16 12.8 55 54 3.8 38.8
04:55 1023 30.21 852 25.16 12.7 54.9 55 3.9 39.1
05:00 1023 30.21 852 25.16 12.6 54.7 55 3.8 38.9
05:05 1023 30.21 852 25.16 12.7 54.8 54 3.8 38.8
05:10 1023 30.21 852 25.16 12.9 55.1 53 3.5 38.4
05:15 1023 30.21 852 25.16 13.2 55.7 52 3.6 38.5
05:20 1023 30.21 852 25.16 13.6 56.4 50 3.4 38.2
05:25 1023 30.21 852 25.16 13.8 56.8 52 4.2 39.5
05:30 1023 30.21 853 25.19 13.2 55.7 53 4 39.2
05:35 1023 30.21 853 25.19 13 55.5 54 3.9 39.1
05:40 1023 30.21 853 25.19 13.2 55.7 53 4 39.1
05:45 1023 30.21 853 25.19 13.4 56 52 3.9 39
05:50 1024 30.24 853 25.19 13.4 56.1 53 4.1 39.4
05:55 1024 30.24 853 25.19 13.3 56 54 4.2 39.6
06:00 1024 30.24 853 25.19 13.4 56.1 53 4.2 39.5
06:05 1024 30.24 853 25.19 13.6 56.6 52 4 39.1
06:10 1024 30.24 853 25.19 13.9 57.1 52 4.2 39.6
06:15 1024 30.24 853 25.19 14.3 57.7 51 4.4 39.9
06:20 1024 30.24 853 25.19 14.6 58.2 50 4.5 40
06:25 1024 30.24 853 25.19 15 59.1 49 4.5 40
06:30 1024 30.24 853 25.19 15.3 59.6 49 4.7 40.5
06:35 1024 30.24 853 25.19 15.4 59.8 47 4.4 39.9
06:40 1024 30.24 853 25.19 15.8 60.4 47 4.5 40.1
06:45 1024 30.24 853 25.19 16 60.8 47 4.7 40.4
06:50 1024 30.24 853 25.19 16.1 61 45 4.4 39.8
06:55 1024 30.24 853 25.19 16.4 61.6 45 4.6 40.4
07:00 1024 30.24 853 25.19 16.9 62.5 44 4.8 40.6
07:05 1024 30.24 853 25.19 17.5 63.4 42 4.5 40.2
07:10 1024 30.24 853 25.19 18.3 64.9 41 4.9 40.8
07:15 1024 30.24 853 25.19 19.1 66.3 39 4.9 40.8
07:20 1024 30.24 853 25.19 19.1 66.4 39 5.2 41.3
07:25 1024 30.24 853 25.19 19.2 66.5 39 4.9 40.9
07:30 1024 30.24 853 25.19 18.9 66 39 4.7 40.4
07:35 1024 30.24 853 25.19 19.3 66.7 36 4 39.2
07:40 1024 30.24 853 25.19 19.4 67 38 4.8 40.7
07:45 1024 30.24 854 25.22 19.6 67.2 37 4.6 40.3
07:50 1024 30.24 853 25.19 20.1 68.3 35 4.2 39.5
07:55 1024 30.24 853 25.19 20.1 68.3 35 4.4 40
08:00 1024 30.24 853 25.19 19.6 67.2 38 4.9 40.8
08:05 1024 30.24 853 25.19 19.3 66.8 38 4.6 40.4
08:10 1024 30.24 853 25.19 19.4 66.9 38 4.8 40.6
08:15 1024 30.24 854 25.22 19.4 66.9 38 4.9 40.8
08:20 1024 30.24 854 25.22 19.6 67.3 39 5.5 41.9
08:25 1024 30.24 854 25.22 20.1 68.2 36 4.9 40.8
08:30 1024 30.24 853 25.19 20.6 69.1 35 4.6 40.3
08:35 1024 30.24 853 25.19 21.1 69.9 34 4.6 40.2
08:40 1024 30.24 853 25.19 21 69.9 33 4.5 40.1
08:45 1024 30.24 853 25.19 21.5 70.6 32 4.5 40
08:50 1024 30.24 853 25.19 21.7 71 33 4.7 40.5
08:55 1024 30.24 853 25.19 22.1 71.7 33 5.3 41.5
09:00 1024 30.24 853 25.19 21.9 71.3 32 4.8 40.6
09:05 1024 30.24 853 25.19 22.1 71.8 33 5.3 41.6
09:10 1024 30.24 853 25.19 22.5 72.5 33 5.5 41.9
09:15 1024 30.24 853 25.19 22.7 72.9 33 5.7 42.2
09:20 1024 30.24 853 25.19 23 73.5 31 5.4 41.7
09:25 1024 30.24 853 25.19 23 73.5 32 5.5 41.9
09:30 1024 30.24 853 25.19 22.9 73.1 33 6.1 43
09:35 1024 30.24 853 25.19 22.5 72.4 33 5.7 42.2
09:40 1024 30.24 853 25.19 22.7 72.9 32 5.5 41.9
09:45 1024 30.24 853 25.19 23.3 73.9 32 6 42.8
09:50 1024 30.24 853 25.19 23.4 74 32 5.8 42.4
09:55 1024 30.24 853 25.19 23.1 73.7 33 6.2 43.1
10:00 1024 30.24 853 25.19 23.6 74.5 32 6.4 43.5
10:05 1024 30.24 853 25.19 24.2 75.6 31 6.1 43
10:10 1024 30.24 853 25.19 24.3 75.7 30 5.8 42.4
10:15 1024 30.24 853 25.19 24 75.3 31 6 42.8
10:20 1024 30.24 853 25.19 23.7 74.7 31 5.7 42.3
10:25 1024 30.24 853 25.19 24.6 76.3 29 5.5 41.9
10:30 1024 30.24 853 25.19 24.5 76 30 5.9 42.7
10:35 1024 30.24 853 25.19 24.7 76.5 29 5.7 42.2
10:40 1024 30.24 853 25.19 25.2 77.4 28 5.7 42.3
10:45 1024 30.24 853 25.19 24.8 76.7 29 6 42.7
10:50 1024 30.24 853 25.19 24.5 76 29 5.7 42.2
10:55 1024 30.24 853 25.19 24.9 76.8 28 5.6 42
11:00 1024 30.24 853 25.19 24.9 76.9 27 4.8 40.7
11:05 1024 30.24 853 25.19 25.8 78.5 29 6.6 43.8
11:10 1024 30.24 853 25.19 25.7 78.3 28 6.4 43.5
11:15 1024 30.24 853 25.19 26.4 79.5 27 6.4 43.5
11:20 1024 30.24 853 25.19 26.2 79.1 27 6.2 43.1
11:25 1024 30.24 853 25.19 26 78.7 28 6.3 43.3
11:30 1024 30.24 853 25.19 26.6 79.9 27 6.2 43.2
11:35 1023 30.21 853 25.19 26.6 80 27 6.3 43.3
11:40 1023 30.21 853 25.19 26.4 79.5 27 6 42.8
11:45 1023 30.21 853 25.19 26 78.7 27 5.7 42.3
11:50 1023 30.21 852 25.16 26.5 79.7 26 5.6 42.1
11:55 1023 30.21 852 25.16 27 80.6 26 6.4 43.5
12:00 1023 30.21 852 25.16 26.7 80 25 5.5 41.8
12:05 1023 30.21 852 25.16 26.7 80 24 4.9 40.8
12:10 1023 30.21 852 25.16 27.2 80.9 24 5 41
12:15 1023 30.21 852 25.16 27.9 82.2 23 4.9 40.9
12:20 1023 30.21 852 25.16 27.9 82.1 22 4.7 40.5
12:25 1023 30.21 852 25.16 28.3 82.9 23 5.3 41.5
12:30 1023 30.21 852 25.16 28.4 83.1 22 4.7 40.5
12:35 1023 30.21 852 25.16 28.6 83.4 23 5.6 42
12:40 1023 30.21 852 25.16 28.8 83.8 22 5 41
12:45 1023 30.21 852 25.16 28.8 83.8 21 4.7 40.4
12:50 1023 30.21 852 25.16 28.8 83.9 20 4.2 39.5
12:55 1023 30.21 852 25.16 28.8 83.9 20 4.2 39.5
13:00 1023 30.21 852 25.16 28.6 83.4 19 3 37.5
13:05 1023 30.21 852 25.16 28.9 84 21 4.4 39.9
13:10 1023 30.21 852 25.16 29.4 84.9 17 2.4 36.2
13:15 1023 30.21 852 25.16 28.8 83.8 18 2.5 36.5
13:20 1023 30.21 852 25.16 28.6 83.4 18 2 35.6
13:25 1023 30.21 852 25.16 29 84.2 18 2.2 36
13:30 1023 30.21 852 25.16 29.3 84.7 17 1.8 35.3
13:35 1023 30.21 852 25.16 29.4 84.9 16 1.4 34.5
13:40 1023 30.21 852 25.16 29.6 85.2 16 1.1 33.9
13:45 1022 30.18 852 25.16 29.2 84.5 19 3.8 38.9
13:50 1022 30.18 852 25.16 29.2 84.6 17 1.8 35.2
13:55 1022 30.18 852 25.16 29.1 84.4 17 1.6 34.9
14:00 1022 30.18 852 25.16 29.7 85.4 16 1.3 34.3
14:05 1022 30.18 852 25.16 29.7 85.4 17 2 35.5
14:10 1022 30.18 852 25.16 29.8 85.6 17 2.3 36.2
14:15 1022 30.18 851 25.13 29.1 84.4 17 2.2 36
14:20 1022 30.18 851 25.13 29.3 84.7 18 2.6 36.7
14:25 1022 30.18 851 25.13 29.2 84.6 17 2.2 35.9
14:30 1022 30.18 851 25.13 28.6 83.5 18 2.5 36.6
14:35 1022 30.18 851 25.13 29.6 85.2 16 1.9 35.4
14:40 1022 30.18 851 25.13 30.1 86.1 16 2.1 35.8
14:45 1022 30.18 851 25.13 30.1 86.1 16 1.6 34.9
14:50 1022 30.18 851 25.13 30.1 86.1 17 2.3 36.1
14:55 1022 30.18 851 25.13 30 86.1 17 2.5 36.6
15:00 1022 30.18 851 25.13 30.1 86.2 16 1.9 35.5
15:05 1022 30.18 851 25.13 30.4 86.6 17 2.9 37.2
15:10 1022 30.18 851 25.13 30.5 87 15 1.8 35.2
15:15 1022 30.18 851 25.13 30.7 87.2 17 2.9 37.1
15:20 1022 30.18 851 25.13 30.4 86.7 16 1.8 35.2
15:25 1022 30.18 851 25.13 30.2 86.4 17 2.5 36.5
15:30 1022 30.18 851 25.13 30.3 86.6 15 1.5 34.7
15:35 1022 30.18 851 25.13 30.3 86.6 16 2.3 36.2
15:40 1022 30.18 851 25.13 30 85.9 17 2.6 36.7
15:45 1022 30.18 851 25.13 29.8 85.7 16 1.6 34.8
15:50 1022 30.18 851 25.13 29.5 85 17 2.2 36
15:55 1022 30.18 851 25.13 29.9 85.9 17 2.5 36.5
16:00 1022 30.18 851 25.13 30.3 86.5 16 1.7 35.1
16:05 1022 30.18 851 25.13 30.7 87.3 15 1.4 34.5
16:10 1022 30.18 851 25.13 30.4 86.7 15 1.7 35
16:15 1022 30.18 851 25.13 29.6 85.3 16 1.2 34.2
16:20 1022 30.18 851 25.13 29.6 85.2 16 1.9 35.3
16:25 1022 30.18 851 25.13 30.3 86.6 16 1.7 35
16:30 1022 30.18 851 25.13 30.4 86.7 16 1.8 35.3
16:35 1022 30.18 851 25.13 30.3 86.6 15 1.3 34.3
16:40 1022 30.18 851 25.13 30.3 86.5 15 1.4 34.6
16:45 1022 30.18 851 25.13 30.6 87.1 16 2.1 35.7
16:50 1021 30.15 851 25.13 30.3 86.5 15 1.2 34.1
16:55 1021 30.15 851 25.13 30.1 86.2 16 2.3 36.2
17:00 1021 30.15 851 25.13 30 86 15 1.3 34.4
17:05 1021 30.15 851 25.13 29.3 84.7 16 1.2 34.1
17:10 1021 30.15 851 25.13 29.3 84.8 17 2.2 36
17:15 1021 30.15 851 25.13 29.3 84.7 16 0.9 33.7
17:20 1021 30.15 851 25.13 29.4 84.8 15 0.8 33.5
17:25 1021 30.15 850 25.1 29.6 85.2 16 1.5 34.7
17:30 1021 30.15 850 25.1 29.5 85.1 16 1 33.8
17:35 1021 30.15 850 25.1 30.1 86.1 16 1.6 34.8
17:40 1021 30.15 850 25.1 29.5 85.1 17 2.2 36
17:45 1021 30.15 850 25.1 29.5 85.1 16 1.6 34.9
17:50 1021 30.15 850 25.1 29 84.2 16 1.4 34.5
17:55 1021 30.15 850 25.1 28.9 84 16 1.1 34
18:00 1021 30.15 850 25.1 28.7 83.7 17 1.9 35.4
18:05 1021 30.15 850 25.1 28.8 83.9 17 1.6 34.9
18:10 1021 30.15 850 25.1 29.1 84.3 15 0.4 32.7
18:15 1021 30.15 850 25.1 28.7 83.7 17 1.3 34.4
18:20 1021 30.15 850 25.1 28.4 83.1 17 1.5 34.8
18:25 1021 30.15 850 25.1 28.4 83.1 17 1.6 34.9
18:30 1021 30.15 850 25.1 28.5 83.3 18 2 35.6
18:35 1021 30.15 850 25.1 28.3 82.9 22 5 41
18:40 1021 30.15 851 25.13 27.2 81 28 7.6 45.7
18:45 1021 30.15 850 25.1 26.4 79.6 30 7.9 46.2
18:50 1021 30.15 850 25.1 26 78.8 31 7.8 46.1
18:55 1021 30.15 851 25.13 25.8 78.5 31 7.8 46.1
19:00 1021 30.15 851 25.13 25.4 77.7 32 7.7 45.9
19:05 1022 30.18 851 25.13 25.3 77.5 32 7.8 46
19:10 1022 30.18 851 25.13 25.1 77.2 32 7.6 45.7
19:15 1022 30.18 851 25.13 24.9 76.8 33 7.6 45.7
19:20 1021 30.15 851 25.13 24.7 76.4 33 7.5 45.6
19:25 1021 30.15 851 25.13 24.5 76.1 33 7.6 45.6
19:30 1022 30.18 851 25.13 24.3 75.7 34 7.6 45.6
19:35 1022 30.18 851 25.13 24.1 75.3 35 7.8 46.1
19:40 1022 30.18 851 25.13 23.8 74.9 36 8.1 46.6
19:45 1022 30.18 851 25.13 23.6 74.4 37 8.4 47
19:50 1022 30.18 851 25.13 23.4 74.1 38 8.4 47.2
19:55 1022 30.18 851 25.13 23.2 73.8 39 8.6 47.4
20:00 1022 30.18 851 25.13 23.1 73.5 39 8.5 47.4
20:05 1022 30.18 851 25.13 23 73.3 40 8.7 47.6
20:10 1022 30.18 851 25.13 22.8 73.1 40 8.6 47.5
20:15 1022 30.18 851 25.13 22.8 73 40 8.7 47.6
20:20 1022 30.18 851 25.13 22.6 72.8 40 8.6 47.5
20:25 1022 30.18 852 25.16 22.6 72.6 41 8.7 47.7
20:30 1022 30.18 851 25.13 22.5 72.4 41 8.7 47.6
20:35 1022 30.18 852 25.16 22.4 72.4 41 8.6 47.5
20:40 1022 30.18 852 25.16 22.4 72.3 41 8.7 47.7
20:45 1022 30.18 851 25.13 22.2 72 41 8.7 47.7
20:50 1022 30.18 852 25.16 22.2 71.9 42 8.8 47.8
20:55 1022 30.18 852 25.16 22.1 71.8 42 8.8 47.9
21:00 1022 30.18 852 25.16 22 71.7 42 8.8 47.9
21:05 1022 30.18 852 25.16 21.9 71.5 43 8.9 48.1
21:10 1023 30.21 852 25.16 21.8 71.3 43 8.9 48.1
21:15 1023 30.21 852 25.16 21.8 71.2 43 8.9 48.1
21:20 1023 30.21 852 25.16 21.8 71.2 43 9 48.1
21:25 1023 30.21 852 25.16 21.8 71.2 43 8.9 48.1
21:30 1023 30.21 852 25.16 21.8 71.2 43 8.9 48
21:35 1023 30.21 852 25.16 21.8 71.2 44 9 48.2
21:40 1023 30.21 852 25.16 21.7 71.1 44 9 48.1
21:45 1023 30.21 852 25.16 21.7 71 44 8.9 48.1
21:50 1023 30.21 852 25.16 21.7 71 44 8.9 48.1
21:55 1023 30.21 852 25.16 21.7 71.1 44 9 48.1
22:00 1023 30.21 852 25.16 21.7 71.1 44 9.1 48.3
22:05 1023 30.21 852 25.16 21.7 71 44 9 48.2
22:10 1023 30.21 852 25.16 21.6 70.9 44 9.1 48.4
22:15 1023 30.21 853 25.19 21.5 70.7 45 9.2 48.5
22:20 1024 30.24 853 25.19 21.4 70.5 46 9.3 48.7
22:25 1024 30.24 853 25.19 21.4 70.5 45 9.1 48.3
22:30 1024 30.24 853 25.19 21.4 70.6 45 9.1 48.4
22:35 1024 30.24 854 25.22 21.5 70.7 44 8.9 48.1
22:40 1025 30.27 854 25.22 21.1 69.9 47 9.4 49
22:45 1025 30.27 854 25.22 19.8 67.6 52 9.8 49.6
22:50 1025 30.27 854 25.22 18.7 65.7 63 11.5 52.8
22:55 1024 30.24 853 25.19 17.3 63.2 68 11.4 52.6
23:00 1024 30.24 854 25.22 16.6 61.8 64 9.7 49.5
23:05 1025 30.27 854 25.22 16.7 62.1 68 10.8 51.4
23:10 1025 30.27 854 25.22 16.2 61.2 68 10.4 50.7
23:15 1025 30.27 854 25.22 15.7 60.3 68 10 50
23:20 1025 30.27 854 25.22 15.4 59.7 72 10.5 50.9
23:25 1025 30.27 854 25.22 15.2 59.3 72 10.1 50.2
23:30 1025 30.27 854 25.22 15.4 59.8 67 9.5 49
23:35 1025 30.27 854 25.22 16.3 61.3 69 10.6 51.1
23:40 1024 30.24 853 25.19 16.1 60.9 72 11.1 52.1
23:45 1023 30.21 852 25.16 15.4 59.7 79 11.8 53.2
23:50 1023 30.21 852 25.16 15 59 79 11.4 52.5
23:55 1022 30.18 851 25.13 15.2 59.3 75 10.8 51.5
24:00 1022 30.18 851 25.13 16 60.7 67 9.8 49.7